Time;durP1;ratioP1;P1;durP2;ratioP2;P2;SDS_P1;SDS_P2;PMS_P1;PMS_P2;Temp;Humidity;BMP_temperature;BMP_pressure;BME280_temperature;BME280_humidity;BME280_pressure;Samples;Min_cycle;Max_cycle;Signal;HPM_P1;HPM_P2
2024/03/06 00:01:39;;;;;;;7.65;6.85;;;19.20;57.40;;;;;;5023868;28;20692;-69
2024/03/06 00:04:04;;;;;;;7.90;7.10;;;19.20;57.30;;;;;;5022316;28;20459;-68
2024/03/06 00:06:30;;;;;;;7.38;6.65;;;19.20;57.40;;;;;;5025993;28;20030;-69
2024/03/06 00:08:56;;;;;;;7.55;6.85;;;19.20;57.30;;;;;;5021449;28;20022;-68
2024/03/06 00:11:21;;;;;;;7.13;6.43;;;19.20;57.30;;;;;;5018339;28;20072;-68
2024/03/06 00:13:47;;;;;;;8.23;7.40;;;19.20;57.30;;;;;;5018474;28;20406;-69
2024/03/06 00:16:13;;;;;;;8.32;7.43;;;19.20;57.30;;;;;;5018961;28;20479;-68
2024/03/06 00:18:40;;;;;;;7.70;6.95;;;19.20;57.30;;;;;;5021910;28;20041;-69
2024/03/06 00:21:05;;;;;;;8.13;7.35;;;19.20;57.40;;;;;;5019532;28;20154;-68
2024/03/06 00:23:31;;;;;;;7.78;6.97;;;19.20;57.40;;;;;;5021419;28;20541;-69
2024/03/06 00:25:56;;;;;;;7.13;6.43;;;19.20;57.40;;;;;;5020430;28;20500;-69
2024/03/06 00:28:22;;;;;;;7.95;7.15;;;19.20;57.30;;;;;;5018556;28;20853;-67
2024/03/06 00:30:47;;;;;;;7.80;7.00;;;19.20;57.30;;;;;;5016308;28;20037;-68
2024/03/06 00:33:13;;;;;;;8.57;7.43;;;19.20;57.30;;;;;;5018326;28;20042;-69
2024/03/06 00:35:38;;;;;;;7.95;7.00;;;19.20;57.40;;;;;;5017555;28;20442;-69
2024/03/06 00:38:04;;;;;;;8.48;7.57;;;19.20;57.40;;;;;;5007715;28;20030;-64
2024/03/06 00:40:30;;;;;;;8.05;7.25;;;19.20;57.40;;;;;;5000560;28;20472;-68
2024/03/06 00:42:56;;;;;;;7.20;6.50;;;19.20;57.40;;;;;;5022591;28;20071;-67
2024/03/06 00:45:22;;;;;;;8.00;7.18;;;19.20;57.40;;;;;;5021055;28;20065;-68
2024/03/06 00:47:47;;;;;;;7.72;6.95;;;19.20;57.30;;;;;;5023638;28;20033;-65
2024/03/06 00:50:13;;;;;;;7.88;7.13;;;19.20;57.30;;;;;;5021780;28;20497;-69
2024/03/06 00:52:38;;;;;;;8.18;7.43;;;19.20;57.40;;;;;;5021685;28;20037;-65
2024/03/06 00:55:05;;;;;;;7.72;6.78;;;19.20;57.30;;;;;;5023643;28;20049;-68
2024/03/06 00:57:30;;;;;;;8.30;7.50;;;19.20;57.30;;;;;;5027711;28;20029;-67
2024/03/06 00:59:56;;;;;;;8.65;7.75;;;19.20;57.30;;;;;;5021463;28;20100;-68
2024/03/06 01:02:21;;;;;;;8.90;7.75;;;19.20;57.40;;;;;;5027717;28;20032;-64
2024/03/06 01:04:47;;;;;;;8.20;7.40;;;19.20;57.40;;;;;;5026128;28;20030;-68
2024/03/06 01:07:12;;;;;;;8.18;7.43;;;19.10;58.00;;;;;;5026434;28;20111;-68
2024/03/06 01:09:38;;;;;;;9.02;8.13;;;19.10;57.40;;;;;;5025627;28;20033;-66
2024/03/06 01:12:05;;;;;;;8.05;7.25;;;19.10;57.50;;;;;;5028660;28;20128;-69
2024/03/06 01:14:31;;;;;;;7.30;6.60;;;19.10;57.60;;;;;;5004518;28;20033;-65
2024/03/06 01:16:56;;;;;;;8.02;7.22;;;19.00;57.60;;;;;;5007818;28;20486;-68
2024/03/06 01:19:22;;;;;;;7.65;6.85;;;19.00;57.70;;;;;;5025488;28;20025;-65
2024/03/06 01:21:48;;;;;;;8.40;7.53;;;19.00;57.80;;;;;;5007149;28;20447;-67
2024/03/06 01:24:14;;;;;;;8.38;7.50;;;18.90;57.80;;;;;;5023989;28;20037;-69
2024/03/06 01:26:40;;;;;;;8.05;7.22;;;18.90;57.90;;;;;;5026158;28;20028;-68
2024/03/06 01:29:06;;;;;;;8.40;7.47;;;18.90;57.90;;;;;;5019131;28;20026;-69
2024/03/06 01:31:31;;;;;;;8.20;7.40;;;18.80;57.90;;;;;;5012155;28;20032;-70
2024/03/06 01:33:58;;;;;;;7.82;7.03;;;18.80;58.00;;;;;;5025818;28;20077;-65
2024/03/06 01:36:24;;;;;;;8.45;7.63;;;18.80;58.00;;;;;;5022797;28;20031;-67
2024/03/06 01:38:49;;;;;;;8.70;7.72;;;18.80;58.10;;;;;;5027819;28;20114;-69
2024/03/06 01:41:15;;;;;;;8.20;7.45;;;18.80;58.10;;;;;;5025615;28;20038;-69
2024/03/06 01:43:41;;;;;;;9.65;8.07;;;18.80;58.10;;;;;;5017460;28;20032;-68
2024/03/06 01:46:06;;;;;;;8.50;7.70;;;18.80;58.00;;;;;;5020432;28;20049;-68
2024/03/06 01:48:33;;;;;;;8.15;7.45;;;18.80;58.00;;;;;;5024776;28;20120;-68
2024/03/06 01:51:02;;;;;;;8.65;7.75;;;18.80;57.90;;;;;;5027915;28;20033;-64
2024/03/06 01:53:30;;;;;;;8.32;7.53;;;18.80;57.90;;;;;;5014205;28;20404;-68
2024/03/06 01:55:56;;;;;;;9.32;8.05;;;18.80;57.90;;;;;;5010563;28;20030;-65
2024/03/06 01:58:23;;;;;;;8.95;7.53;;;18.80;57.80;;;;;;5003639;28;20021;-66
2024/03/06 02:00:50;;;;;;;9.65;8.20;;;18.80;57.80;;;;;;5022568;28;20037;-64
2024/03/06 02:03:16;;;;;;;11.15;8.35;;;18.90;57.80;;;;;;5020218;28;20064;-65
2024/03/06 02:05:43;;;;;;;9.00;8.10;;;18.90;57.80;;;;;;5022983;28;20037;-69
2024/03/06 02:08:08;;;;;;;9.30;7.97;;;18.90;57.70;;;;;;5018627;28;20404;-68
2024/03/06 02:10:34;;;;;;;9.25;8.32;;;18.90;57.70;;;;;;5020443;28;20029;-68
2024/03/06 02:13:00;;;;;;;9.02;8.10;;;18.90;57.70;;;;;;5023325;28;20036;-68
2024/03/06 02:15:25;;;;;;;8.30;7.45;;;18.90;57.60;;;;;;5006841;28;20112;-68
2024/03/06 02:17:53;;;;;;;8.95;8.10;;;18.90;57.60;;;;;;5023723;28;20061;-66
2024/03/06 02:20:24;;;;;;;8.75;7.85;;;18.90;57.50;;;;;;5022305;28;20029;-68
2024/03/06 02:22:50;;;;;;;9.13;8.18;;;19.00;57.50;;;;;;5022895;28;20072;-67
2024/03/06 02:25:16;;;;;;;8.73;7.93;;;19.00;57.50;;;;;;5024828;28;20057;-67
2024/03/06 02:27:43;;;;;;;8.35;7.53;;;19.00;57.50;;;;;;5023182;28;20412;-68
2024/03/06 02:30:09;;;;;;;8.40;7.53;;;19.00;57.40;;;;;;5019197;28;20022;-67
2024/03/06 02:32:34;;;;;;;8.68;7.78;;;19.00;57.40;;;;;;5021251;28;20038;-69
2024/03/06 02:35:02;;;;;;;9.18;8.27;;;19.00;57.40;;;;;;5021043;28;20158;-64
2024/03/06 02:37:28;;;;;;;9.13;8.23;;;19.00;57.40;;;;;;5021816;28;20029;-69
2024/03/06 02:39:53;;;;;;;8.32;7.53;;;19.00;57.30;;;;;;5029608;28;20554;-66
2024/03/06 02:42:19;;;;;;;8.68;7.88;;;19.00;57.30;;;;;;5022198;28;20395;-70
2024/03/06 02:44:44;;;;;;;9.30;8.40;;;19.00;57.20;;;;;;5001374;28;20408;-68
2024/03/06 02:47:10;;;;;;;8.95;8.15;;;19.10;57.30;;;;;;5021871;28;20052;-70
2024/03/06 02:49:35;;;;;;;10.77;8.45;;;19.10;57.20;;;;;;5022150;28;20034;-68
2024/03/06 02:52:01;;;;;;;9.73;8.70;;;19.10;57.20;;;;;;5022843;28;20488;-65
2024/03/06 02:54:27;;;;;;;8.52;7.72;;;19.10;57.30;;;;;;5021691;28;20025;-69
2024/03/06 02:56:52;;;;;;;8.63;7.72;;;19.10;57.20;;;;;;5020706;28;20034;-66
2024/03/06 02:59:18;;;;;;;8.15;7.35;;;19.10;57.20;;;;;;5025673;28;20018;-69
2024/03/06 03:01:44;;;;;;;8.45;7.65;;;19.10;57.20;;;;;;5016642;28;20037;-68
2024/03/06 03:04:10;;;;;;;9.00;8.07;;;19.10;57.20;;;;;;5016598;28;20030;-65
2024/03/06 03:06:35;;;;;;;8.85;7.93;;;19.10;57.20;;;;;;5018669;28;20406;-69
2024/03/06 03:09:02;;;;;;;8.80;8.00;;;19.10;57.20;;;;;;5012962;28;20040;-69
2024/03/06 03:11:28;;;;;;;12.52;7.57;;;19.10;57.20;;;;;;5017353;28;20032;-69
2024/03/06 03:13:53;;;;;;;8.52;7.72;;;19.10;57.20;;;;;;4999282;28;20037;-69
2024/03/06 03:16:20;;;;;;;8.85;7.32;;;19.10;57.10;;;;;;5021481;28;20028;-64
2024/03/06 03:18:46;;;;;;;8.65;7.75;;;19.10;57.20;;;;;;5003705;28;20543;-68
2024/03/06 03:21:12;;;;;;;8.45;7.65;;;19.10;57.20;;;;;;5019554;28;20026;-68
2024/03/06 03:23:39;;;;;;;9.00;7.72;;;19.10;57.20;;;;;;5002139;28;20029;-68
2024/03/06 03:26:05;;;;;;;9.65;7.65;;;19.10;57.20;;;;;;5017976;28;20107;-69
2024/03/06 03:28:30;;;;;;;7.88;7.18;;;19.10;57.30;;;;;;5018931;28;20096;-65
2024/03/06 03:30:59;;;;;;;9.93;8.02;;;19.00;57.30;;;;;;5022770;28;20035;-69
2024/03/06 03:33:24;;;;;;;8.40;7.60;;;19.00;57.30;;;;;;5014585;28;20057;-69
2024/03/06 03:35:50;;;;;;;8.57;7.78;;;19.00;57.30;;;;;;5019760;28;20061;-66
2024/03/06 03:38:16;;;;;;;9.15;8.20;;;19.00;57.30;;;;;;5024587;28;20534;-66
2024/03/06 03:40:42;;;;;;;8.43;7.63;;;19.00;57.40;;;;;;5020127;28;20025;-66
2024/03/06 03:43:07;;;;;;;8.52;7.68;;;19.00;57.30;;;;;;5020733;28;20031;-69
2024/03/06 03:45:36;;;;;;;9.25;7.63;;;19.00;57.40;;;;;;5024888;28;20452;-69
2024/03/06 03:48:05;;;;;;;8.15;7.30;;;19.00;57.40;;;;;;5023940;28;20566;-67
2024/03/06 03:50:31;;;;;;;8.80;7.50;;;19.00;57.50;;;;;;5009886;28;20049;-69
2024/03/06 03:53:00;;;;;;;8.52;7.53;;;19.00;57.50;;;;;;5025182;28;20396;-70
2024/03/06 03:55:26;;;;;;;8.00;7.20;;;19.00;57.50;;;;;;5020915;28;20048;-64
2024/03/06 03:57:52;;;;;;;8.23;7.43;;;19.00;57.50;;;;;;5022892;28;20819;-68
2024/03/06 04:00:18;;;;;;;7.95;7.15;;;18.90;57.40;;;;;;5018052;28;20049;-69
2024/03/06 04:02:44;;;;;;;8.93;8.02;;;18.90;57.50;;;;;;5018860;28;20030;-70
2024/03/06 04:05:10;;;;;;;8.75;7.95;;;18.90;57.50;;;;;;5012554;28;20045;-70
2024/03/06 04:07:36;;;;;;;8.02;7.22;;;18.90;57.50;;;;;;5019018;28;20037;-69
2024/03/06 04:10:03;;;;;;;8.18;7.38;;;18.90;57.50;;;;;;5018591;28;20030;-69
2024/03/06 04:12:28;;;;;;;9.15;8.27;;;18.90;57.50;;;;;;5018789;28;20416;-68
2024/03/06 04:14:53;;;;;;;8.55;7.72;;;18.90;57.50;;;;;;5017216;28;20026;-69
2024/03/06 04:17:19;;;;;;;7.75;6.97;;;18.90;57.40;;;;;;5023187;28;20436;-69
2024/03/06 04:19:45;;;;;;;8.98;8.07;;;18.90;57.50;;;;;;5003207;28;20108;-68
2024/03/06 04:22:10;;;;;;;8.63;7.82;;;18.90;57.50;;;;;;5024919;28;20025;-64
2024/03/06 04:24:36;;;;;;;8.18;7.38;;;18.90;57.50;;;;;;5019740;28;20029;-68
2024/03/06 04:27:01;;;;;;;8.80;7.90;;;18.90;57.50;;;;;;5023351;28;20056;-69
2024/03/06 04:29:27;;;;;;;8.65;7.80;;;18.90;57.50;;;;;;5019517;28;20117;-68
2024/03/06 04:31:52;;;;;;;8.27;7.47;;;18.90;57.40;;;;;;5006830;28;20107;-69
2024/03/06 04:34:19;;;;;;;8.73;7.88;;;18.90;57.50;;;;;;5020634;28;20041;-69
2024/03/06 04:36:45;;;;;;;8.32;7.50;;;18.90;57.50;;;;;;5018492;28;20029;-65
2024/03/06 04:39:11;;;;;;;8.55;7.75;;;18.90;57.40;;;;;;5021591;28;20032;-68
2024/03/06 04:41:37;;;;;;;8.43;7.63;;;18.90;57.50;;;;;;5023342;28;20028;-69
2024/03/06 04:44:03;;;;;;;8.23;7.43;;;18.90;57.50;;;;;;5019404;28;20029;-69
2024/03/06 04:46:28;;;;;;;9.93;8.25;;;18.90;57.40;;;;;;5020858;28;20037;-69
2024/03/06 04:48:54;;;;;;;8.73;7.82;;;18.90;57.40;;;;;;5005039;28;20109;-69
2024/03/06 04:51:19;;;;;;;8.77;7.93;;;18.90;57.40;;;;;;5024173;28;20525;-68
2024/03/06 04:53:45;;;;;;;8.20;7.35;;;18.90;57.40;;;;;;5012140;28;20037;-67
2024/03/06 04:56:12;;;;;;;8.82;7.35;;;18.90;57.40;;;;;;5022252;28;20573;-68
2024/03/06 04:58:38;;;;;;;7.97;7.25;;;18.90;57.50;;;;;;5021351;28;20508;-66
2024/03/06 05:01:03;;;;;;;8.05;7.22;;;18.90;57.40;;;;;;5019702;28;20823;-69
2024/03/06 05:03:29;;;;;;;9.10;7.75;;;18.90;57.40;;;;;;5022039;28;20400;-67
2024/03/06 05:05:54;;;;;;;8.75;7.85;;;18.90;57.30;;;;;;5023508;28;20037;-66
2024/03/06 05:08:20;;;;;;;8.82;7.75;;;18.90;57.30;;;;;;5019717;28;20033;-70
2024/03/06 05:10:46;;;;;;;8.05;7.25;;;18.90;57.30;;;;;;5020296;28;20053;-69
2024/03/06 05:13:12;;;;;;;8.65;7.75;;;18.90;57.30;;;;;;5023512;28;20519;-68
2024/03/06 05:15:38;;;;;;;8.65;7.75;;;18.90;57.30;;;;;;4998855;28;20036;-67
2024/03/06 05:18:04;;;;;;;8.65;7.75;;;18.90;57.30;;;;;;5020353;28;20048;-67
2024/03/06 05:20:31;;;;;;;8.05;7.25;;;19.00;57.30;;;;;;5021264;28;20034;-68
2024/03/06 05:22:56;;;;;;;7.90;7.18;;;18.90;57.30;;;;;;5025069;28;20037;-67
2024/03/06 05:25:22;;;;;;;10.18;8.27;;;19.00;57.30;;;;;;5024270;28;20041;-67
2024/03/06 05:27:47;;;;;;;8.68;7.47;;;19.00;57.30;;;;;;5005875;28;20531;-66
2024/03/06 05:30:14;;;;;;;7.50;6.80;;;19.00;57.30;;;;;;5018375;28;20152;-68
2024/03/06 05:32:41;;;;;;;8.43;7.63;;;19.00;57.30;;;;;;5020092;28;20148;-62
2024/03/06 05:35:08;;;;;;;9.23;8.10;;;19.00;57.30;;;;;;5022502;28;20033;-66
2024/03/06 05:37:35;;;;;;;9.55;7.75;;;19.00;57.30;;;;;;5021307;28;20508;-67
2024/03/06 05:40:00;;;;;;;10.73;7.65;;;19.00;57.30;;;;;;5019836;28;20036;-67
2024/03/06 05:42:26;;;;;;;8.15;7.35;;;19.00;57.30;;;;;;5022944;28;20037;-68
2024/03/06 05:44:54;;;;;;;8.05;7.25;;;19.00;57.30;;;;;;5024052;28;20033;-67
2024/03/06 05:47:19;;;;;;;8.10;7.30;;;19.00;57.30;;;;;;5022153;28;20028;-67
2024/03/06 05:49:45;;;;;;;8.00;7.05;;;19.00;57.20;;;;;;5025131;28;20026;-67
2024/03/06 05:52:11;;;;;;;8.63;7.60;;;19.00;57.30;;;;;;5027700;28;20041;-62
2024/03/06 05:54:37;;;;;;;7.32;6.63;;;19.00;57.20;;;;;;5027228;28;20029;-67
2024/03/06 05:57:02;;;;;;;8.25;7.45;;;19.00;57.20;;;;;;5029814;28;20408;-66
2024/03/06 05:59:28;;;;;;;7.70;6.90;;;19.00;57.20;;;;;;5024859;28;20025;-67
2024/03/06 06:01:54;;;;;;;8.90;7.30;;;19.00;57.20;;;;;;5024738;28;20036;-66
2024/03/06 06:04:20;;;;;;;7.45;6.75;;;19.00;57.20;;;;;;5026745;28;20433;-68
2024/03/06 06:06:45;;;;;;;7.95;7.15;;;19.00;57.20;;;;;;5028939;28;20029;-68
2024/03/06 06:09:15;;;;;;;10.27;7.82;;;19.00;57.20;;;;;;5008542;28;20070;-68
2024/03/06 06:11:42;;;;;;;7.82;7.05;;;19.00;57.20;;;;;;5013303;28;20032;-69
2024/03/06 06:14:07;;;;;;;8.13;6.80;;;19.00;57.20;;;;;;5020141;28;20613;-69
2024/03/06 06:16:37;;;;;;;9.10;8.15;;;19.00;57.20;;;;;;5007140;28;20521;-68
2024/03/06 06:19:03;;;;;;;12.23;8.68;;;19.00;57.30;;;;;;5024152;28;20033;-68
2024/03/06 06:21:30;;;;;;;12.20;9.10;;;19.00;57.40;;;;;;5023849;28;20462;-63
2024/03/06 06:23:56;;;;;;;13.02;9.63;;;19.00;57.50;;;;;;5023275;28;20060;-67
2024/03/06 06:26:21;;;;;;;13.70;9.98;;;18.90;57.50;;;;;;5026313;28;20496;-66
2024/03/06 06:28:47;;;;;;;12.25;9.60;;;18.90;57.70;;;;;;5022481;28;20041;-62
2024/03/06 06:31:12;;;;;;;15.82;9.98;;;18.80;57.70;;;;;;5026717;28;20017;-68
2024/03/06 06:33:38;;;;;;;14.65;10.82;;;18.80;57.80;;;;;;5022482;28;20442;-67
2024/03/06 06:36:03;;;;;;;14.07;10.80;;;18.80;57.90;;;;;;5024976;28;20037;-66
2024/03/06 06:38:29;;;;;;;14.30;10.48;;;18.70;57.90;;;;;;5030040;28;20083;-67
2024/03/06 06:40:55;;;;;;;14.48;10.50;;;18.70;57.90;;;;;;5023962;28;20091;-68
2024/03/06 06:43:21;;;;;;;14.50;10.80;;;18.70;58.00;;;;;;5024044;28;20495;-69
2024/03/06 06:45:46;;;;;;;14.25;10.07;;;18.70;58.10;;;;;;5014842;28;20033;-68
2024/03/06 06:48:12;;;;;;;16.15;11.55;;;18.70;58.10;;;;;;5023948;28;20037;-66
2024/03/06 06:50:37;;;;;;;12.82;10.30;;;18.70;58.20;;;;;;5023961;28;20108;-68
2024/03/06 06:53:04;;;;;;;16.70;10.35;;;18.60;58.10;;;;;;5027174;28;20098;-64
2024/03/06 06:55:30;;;;;;;16.52;10.88;;;18.60;58.10;;;;;;5026647;28;20029;-68
2024/03/06 06:57:55;;;;;;;15.52;10.65;;;18.60;58.10;;;;;;5022389;28;20092;-67
2024/03/06 07:00:22;;;;;;;14.02;10.60;;;18.70;58.10;;;;;;5026098;28;20025;-65
2024/03/06 07:02:48;;;;;;;19.58;11.27;;;18.70;58.10;;;;;;5025192;28;20040;-67
2024/03/06 07:05:15;;;;;;;14.65;11.15;;;18.70;58.10;;;;;;5028981;28;20029;-68
2024/03/06 07:07:40;;;;;;;14.07;10.75;;;18.70;57.90;;;;;;5018873;28;20044;-67
2024/03/06 07:10:07;;;;;;;14.85;10.73;;;18.70;58.00;;;;;;5006056;28;20029;-69
2024/03/06 07:12:33;;;;;;;16.23;11.77;;;18.70;57.90;;;;;;5007410;28;20032;-67
2024/03/06 07:15:07;;;;;;;15.77;10.73;;;18.70;57.80;;;;;;5023424;28;20037;-68
2024/03/06 07:17:33;;;;;;;14.20;10.35;;;18.70;57.70;;;;;;5021080;28;20708;-67
2024/03/06 07:19:58;;;;;;;15.07;11.05;;;18.70;57.70;;;;;;5022775;28;20056;-68
2024/03/06 07:22:24;;;;;;;20.10;11.75;;;18.80;57.70;;;;;;5025313;28;20049;-68
2024/03/06 07:24:50;;;;;;;14.82;10.40;;;18.80;57.70;;;;;;5023577;28;20029;-67
2024/03/06 07:27:15;;;;;;;13.15;10.60;;;18.80;57.60;;;;;;5025096;28;20021;-64
2024/03/06 07:29:41;;;;;;;14.05;10.88;;;18.80;57.60;;;;;;5023575;28;20033;-68
2024/03/06 07:32:06;;;;;;;15.20;10.55;;;18.80;57.50;;;;;;5021518;28;20476;-67
2024/03/06 07:34:32;;;;;;;14.80;10.93;;;18.90;57.50;;;;;;5022808;28;20029;-68
2024/03/06 07:36:59;;;;;;;13.45;10.20;;;18.90;57.50;;;;;;5012414;28;20326;-67
2024/03/06 07:39:24;;;;;;;12.63;9.27;;;18.90;57.40;;;;;;5021782;28;20017;-67
2024/03/06 07:41:50;;;;;;;16.52;11.45;;;18.90;57.30;;;;;;5024068;28;20028;-67
2024/03/06 07:44:16;;;;;;;15.40;10.45;;;18.90;57.30;;;;;;5020452;28;20053;-67
2024/03/06 07:46:41;;;;;;;12.45;10.30;;;19.00;57.30;;;;;;5020504;28;20061;-68
2024/03/06 07:49:07;;;;;;;12.48;10.15;;;19.00;57.30;;;;;;5026719;28;20029;-67
2024/03/06 07:51:32;;;;;;;14.43;10.52;;;19.00;57.30;;;;;;5012968;28;20124;-66
2024/03/06 07:53:59;;;;;;;14.13;10.20;;;19.00;57.20;;;;;;4991714;28;20030;-68
2024/03/06 07:56:25;;;;;;;11.95;9.93;;;19.00;57.10;;;;;;5020274;28;20502;-67
2024/03/06 07:58:51;;;;;;;11.63;10.00;;;19.00;57.10;;;;;;5019357;28;20100;-67
2024/03/06 08:01:17;;;;;;;13.27;9.82;;;19.10;57.00;;;;;;4998495;28;20033;-67
2024/03/06 08:03:43;;;;;;;15.13;10.35;;;19.10;57.00;;;;;;5001299;28;20455;-66
2024/03/06 08:06:09;;;;;;;14.75;10.32;;;19.10;57.00;;;;;;5002499;28;20277;-69
2024/03/06 08:08:35;;;;;;;14.20;10.70;;;19.10;57.00;;;;;;4987823;28;20037;-66
2024/03/06 08:11:01;;;;;;;14.23;10.50;;;19.10;57.00;;;;;;5022608;28;20026;-66
2024/03/06 08:13:27;;;;;;;15.48;10.50;;;19.10;56.90;;;;;;5009914;28;20030;-68
2024/03/06 08:15:53;;;;;;;13.75;10.35;;;19.20;56.90;;;;;;5022432;28;20031;-67
2024/03/06 08:18:18;;;;;;;14.10;9.77;;;19.20;56.90;;;;;;5019135;28;20029;-70
2024/03/06 08:20:44;;;;;;;14.75;10.63;;;19.20;56.90;;;;;;5020678;28;20040;-70
2024/03/06 08:23:10;;;;;;;13.77;9.75;;;19.20;56.90;;;;;;5019931;28;20468;-68
2024/03/06 08:25:35;;;;;;;13.82;9.93;;;19.20;56.80;;;;;;5015326;28;20087;-68
2024/03/06 08:28:03;;;;;;;13.23;9.95;;;19.20;56.80;;;;;;5015431;28;20570;-69
2024/03/06 08:30:30;;;;;;;13.18;9.82;;;19.20;56.80;;;;;;5020316;28;20554;-69
2024/03/06 08:32:56;;;;;;;12.88;10.00;;;19.30;56.80;;;;;;5018271;28;20033;-69
2024/03/06 08:35:23;;;;;;;14.23;10.48;;;19.30;56.80;;;;;;5021793;28;20033;-67
2024/03/06 08:37:49;;;;;;;13.95;10.30;;;19.30;56.80;;;;;;4997987;28;20038;-67
2024/03/06 08:40:14;;;;;;;13.32;10.05;;;19.30;56.80;;;;;;5019623;28;20034;-67
2024/03/06 08:42:42;;;;;;;13.82;11.00;;;19.30;56.80;;;;;;5015074;28;20118;-68
2024/03/06 08:45:08;;;;;;;15.60;11.00;;;19.30;56.70;;;;;;5021059;28;20125;-66
2024/03/06 08:47:34;;;;;;;12.52;9.95;;;19.30;56.70;;;;;;5016382;28;20128;-68
2024/03/06 08:49:59;;;;;;;14.45;10.70;;;19.30;56.70;;;;;;5017098;28;20037;-67
2024/03/06 08:52:25;;;;;;;12.20;9.07;;;19.40;56.70;;;;;;5018976;28;20042;-68
2024/03/06 08:54:50;;;;;;;14.82;10.20;;;19.40;56.70;;;;;;5006720;28;20132;-68
2024/03/06 08:57:16;;;;;;;13.40;10.27;;;19.30;56.60;;;;;;5020198;28;20033;-68
2024/03/06 08:59:43;;;;;;;13.73;10.52;;;19.40;56.70;;;;;;5021145;28;20037;-67
2024/03/06 09:02:14;;;;;;;13.93;10.43;;;19.40;56.70;;;;;;5024921;28;20029;-68
2024/03/06 09:04:40;;;;;;;14.65;10.50;;;19.40;56.70;;;;;;5014037;28;20030;-69
2024/03/06 09:07:05;;;;;;;13.70;10.38;;;19.30;56.70;;;;;;4994506;28;20635;-68
2024/03/06 09:09:33;;;;;;;13.77;9.32;;;19.30;56.70;;;;;;5021058;28;20126;-68
2024/03/06 09:12:05;;;;;;;12.88;10.48;;;19.30;56.70;;;;;;5021112;28;20029;-69
2024/03/06 09:14:32;;;;;;;14.32;10.70;;;19.20;56.80;;;;;;5014200;28;20061;-67
2024/03/06 09:16:58;;;;;;;14.10;10.52;;;19.20;56.80;;;;;;5019586;28;20025;-68
2024/03/06 09:19:24;;;;;;;15.27;10.60;;;19.20;56.90;;;;;;5023532;28;20085;-67
2024/03/06 09:21:49;;;;;;;12.60;10.80;;;19.10;57.00;;;;;;5027423;28;20204;-66
2024/03/06 09:24:15;;;;;;;14.05;10.15;;;19.10;57.10;;;;;;5006786;28;20029;-69
2024/03/06 09:26:40;;;;;;;12.75;10.40;;;19.10;57.10;;;;;;5026453;28;20053;-68
2024/03/06 09:29:06;;;;;;;12.88;9.90;;;19.10;57.20;;;;;;5025340;28;20029;-70
2024/03/06 09:31:31;;;;;;;14.63;10.88;;;19.10;57.30;;;;;;5002150;28;20704;-66
2024/03/06 09:33:57;;;;;;;16.13;9.90;;;19.00;57.30;;;;;;5021891;28;20030;-68
2024/03/06 09:36:24;;;;;;;12.88;9.88;;;18.90;57.30;;;;;;5025286;28;20120;-68
2024/03/06 09:38:49;;;;;;;12.25;10.18;;;18.90;57.40;;;;;;5024734;28;20144;-68
2024/03/06 09:41:14;;;;;;;13.27;10.55;;;18.90;57.50;;;;;;5026486;28;20069;-66
2024/03/06 09:43:41;;;;;;;13.55;10.90;;;18.90;57.50;;;;;;5024298;28;20033;-67
2024/03/06 09:46:06;;;;;;;12.50;10.60;;;18.90;57.60;;;;;;5025553;28;20095;-68
2024/03/06 09:48:33;;;;;;;11.57;9.77;;;18.80;57.60;;;;;;5027764;28;20487;-67
2024/03/06 09:51:02;;;;;;;12.43;10.13;;;18.80;57.70;;;;;;5024605;28;20061;-68
2024/03/06 09:53:28;;;;;;;13.15;10.02;;;18.80;57.70;;;;;;5023230;28;20040;-67
2024/03/06 09:55:54;;;;;;;10.70;9.57;;;18.80;57.70;;;;;;5023911;28;20443;-68
2024/03/06 09:58:19;;;;;;;12.25;10.02;;;18.80;57.70;;;;;;5023546;28;20053;-67
2024/03/06 10:00:47;;;;;;;12.70;9.45;;;18.80;57.80;;;;;;5024054;28;20119;-68
2024/03/06 10:03:13;;;;;;;12.60;10.05;;;18.80;57.80;;;;;;5029407;28;20643;-67
2024/03/06 10:05:38;;;;;;;13.27;10.57;;;18.80;57.80;;;;;;5027063;28;20033;-68
2024/03/06 10:08:04;;;;;;;10.85;9.15;;;18.80;57.80;;;;;;5025866;28;20121;-67
2024/03/06 10:10:30;;;;;;;11.35;9.65;;;18.80;57.80;;;;;;5025846;28;20042;-67
2024/03/06 10:13:00;;;;;;;10.57;9.40;;;18.70;57.80;;;;;;5025131;28;20195;-67
2024/03/06 10:15:29;;;;;;;12.68;9.57;;;18.70;57.80;;;;;;5022575;28;20040;-67
2024/03/06 10:18:14;;;;;;;11.13;9.20;;;18.70;57.80;;;;;;5009908;28;20056;-65
2024/03/06 10:20:43;;;;;;;;;;;18.70;57.80;;;;;;5024221;28;20119;-67
2024/03/06 10:23:09;;;;;;;11.55;9.82;;;18.70;57.80;;;;;;5026048;28;19917;-68
2024/03/06 10:25:34;;;;;;;11.00;9.07;;;18.70;57.80;;;;;;5024175;28;20029;-67
2024/03/06 10:28:03;;;;;;;11.98;9.85;;;18.70;57.80;;;;;;5022996;28;20079;-68
2024/03/06 10:30:28;;;;;;;11.77;9.75;;;18.70;57.80;;;;;;5024022;28;20397;-67
2024/03/06 10:32:54;;;;;;;12.13;9.75;;;18.70;57.80;;;;;;5020010;28;20052;-69
2024/03/06 10:35:20;;;;;;;11.45;9.18;;;18.80;57.80;;;;;;5027575;28;20025;-66
2024/03/06 10:37:46;;;;;;;12.20;9.70;;;18.80;57.80;;;;;;5022209;28;20029;-66
2024/03/06 10:40:15;;;;;;;11.82;9.68;;;18.80;57.80;;;;;;5021566;28;20025;-68
2024/03/06 10:42:42;;;;;;;10.60;8.90;;;18.80;57.60;;;;;;5022345;28;20183;-66
2024/03/06 10:45:10;;;;;;;10.93;9.38;;;18.90;57.50;;;;;;5023014;28;20500;-68
2024/03/06 10:47:37;;;;;;;10.70;9.60;;;18.90;57.40;;;;;;5020303;28;20030;-64
2024/03/06 10:50:04;;;;;;;12.30;9.48;;;19.00;57.30;;;;;;5023936;28;20026;-67
2024/03/06 10:52:33;;;;;;;10.55;9.50;;;19.10;57.20;;;;;;5023481;28;20714;-66
2024/03/06 10:54:59;;;;;;;10.98;8.43;;;19.10;57.10;;;;;;5023933;28;20578;-67
2024/03/06 10:57:25;;;;;;;10.88;9.30;;;19.20;57.00;;;;;;5026824;28;20029;-66
2024/03/06 10:59:52;;;;;;;10.25;9.20;;;19.20;56.80;;;;;;5024599;28;20078;-68
2024/03/06 11:02:18;;;;;;;10.23;8.35;;;19.30;56.70;;;;;;5023434;28;20043;-67
2024/03/06 11:04:44;;;;;;;11.02;8.95;;;19.40;56.60;;;;;;5020713;28;20694;-71
2024/03/06 11:07:10;;;;;;;10.32;8.68;;;19.40;56.50;;;;;;5019741;28;20076;-67
2024/03/06 11:09:39;;;;;;;10.95;9.05;;;19.50;56.40;;;;;;5022926;28;20052;-67
2024/03/06 11:12:08;;;;;;;9.30;8.27;;;19.50;56.30;;;;;;5023580;28;20063;-68
2024/03/06 11:14:36;;;;;;;11.40;8.23;;;19.60;56.30;;;;;;5014967;28;20668;-68
2024/03/06 11:17:07;;;;;;;9.57;8.57;;;19.60;56.20;;;;;;5018692;28;20029;-67
2024/03/06 11:19:59;;;;;;;9.18;8.00;;;19.60;56.10;;;;;;5026791;28;20392;-67
2024/03/06 11:22:56;;;;;;;9.05;7.78;;;19.70;56.10;;;;;;5022318;28;20118;-66
2024/03/06 11:25:55;;;;;;;9.18;8.20;;;19.70;56.00;;;;;;5018889;28;20091;-65
2024/03/06 11:28:27;;;;;;;10.38;9.25;;;19.80;56.00;;;;;;5013904;28;20044;-65
2024/03/06 11:31:01;;;;;;;10.15;8.68;;;19.80;55.90;;;;;;5022453;28;20034;-68
2024/03/06 11:33:38;;;;;;;10.02;7.90;;;19.80;56.00;;;;;;5026667;28;21378;-67
2024/03/06 11:36:22;;;;;;;10.05;8.25;;;19.70;55.90;;;;;;5023242;28;20041;-68
2024/03/06 11:39:10;;;;;;;11.25;8.57;;;19.80;56.00;;;;;;5008630;28;20033;-68
2024/03/06 11:41:35;;;;;;;10.93;8.93;;;19.80;56.00;;;;;;5021307;28;20079;-68
2024/03/06 11:44:01;;;;;;;8.65;7.75;;;19.70;56.00;;;;;;5003280;28;20030;-66
2024/03/06 11:47:01;;;;;;;10.55;8.48;;;19.70;56.00;;;;;;5024334;28;20117;-68
2024/03/06 11:49:33;;;;;;;9.23;8.30;;;19.70;56.10;;;;;;5007082;28;20030;-68
2024/03/06 11:52:04;;;;;;;10.05;7.68;;;19.70;56.20;;;;;;5023868;28;20087;-68
2024/03/06 11:54:31;;;;;;;8.93;8.02;;;19.70;56.20;;;;;;5026852;28;20081;-68
2024/03/06 11:56:58;;;;;;;9.05;8.10;;;19.70;56.30;;;;;;5026377;28;20373;-68
2024/03/06 11:59:25;;;;;;;9.15;7.97;;;19.70;56.40;;;;;;5022601;28;20548;-68
2024/03/06 12:01:55;;;;;;;9.70;8.20;;;19.60;56.30;;;;;;5019936;28;20400;-69
2024/03/06 12:04:21;;;;;;;10.43;8.00;;;19.60;56.40;;;;;;5023595;28;20388;-69
2024/03/06 12:06:47;;;;;;;8.38;7.43;;;19.60;56.40;;;;;;5024490;28;20105;-68
2024/03/06 12:09:12;;;;;;;8.18;7.38;;;19.60;56.50;;;;;;5015591;28;20091;-66
2024/03/06 12:11:38;;;;;;;9.38;7.85;;;19.50;56.50;;;;;;5022542;28;20063;-66
2024/03/06 12:14:04;;;;;;;9.30;7.88;;;19.60;56.60;;;;;;5009195;28;20033;-68
2024/03/06 12:16:29;;;;;;;9.13;7.75;;;19.50;56.60;;;;;;5007781;28;20400;-68
2024/03/06 12:18:58;;;;;;;8.80;7.90;;;19.50;56.60;;;;;;5021519;28;20033;-69
2024/03/06 12:21:34;;;;;;;8.95;7.85;;;19.50;56.60;;;;;;5022575;28;20772;-68
2024/03/06 12:24:15;;;;;;;11.45;8.05;;;19.50;56.60;;;;;;5020700;28;20033;-64
2024/03/06 12:26:41;;;;;;;9.63;7.90;;;19.50;56.70;;;;;;4994891;28;20018;-65
2024/03/06 12:29:11;;;;;;;8.73;7.82;;;19.50;56.70;;;;;;5019316;28;20034;-66
2024/03/06 12:31:41;;;;;;;8.15;7.20;;;19.50;56.70;;;;;;5009038;28;20041;-68
2024/03/06 12:34:07;;;;;;;9.60;7.85;;;19.50;56.80;;;;;;5020358;28;20044;-65
2024/03/06 12:36:33;;;;;;;11.10;8.30;;;19.40;56.80;;;;;;5024175;28;20113;-68
2024/03/06 12:39:00;;;;;;;10.73;7.85;;;19.40;56.70;;;;;;5017754;28;20408;-67